SBGLSBPS

Guest
Details From SBGL - Galeao Antonio Carlos Jombim
To SBPS - Porto Seguro
Flight Number -
Tags generated
Created
Modified
Stats Distance 455 nm / 842 km
Max Altitude 35,000 ft / 10,668 m
Waypoints 7
Social Downloads 0
Likes 0
Share VATSIM

Download

Looking for another format? Having issues loading an existing format? Contact us
Advertisement - Login to hide

Notes

Basic altitude profile: - Ascent Rate: 2500ft/min - Ascent Speed: 250kts - Cruise Altitude: 35000ft - Cruise Speed: 420kts - Descent Rate: 1500ft/min - Descent Speed: 250kts Options: - Use NATs: yes - Use PACOTS: yes - Use low airways: yes - Use high airways: yes

Route

SBGL AWAKE UZ10 NACAR UZ15 ACRID SBPS

ID Type Via Altitude Latitude Longitude Leg Dist Tot Dist Heading (true) Name
O SBGL APT - 0 ft / 0 m -22.80894˚ -43.24368˚ - 0 nm - Galeao Antonio Carlos Jombim
AWAKE FIX - 19,500 ft / 5,944 m -22.13733˚ -42.57317˚ 54 nm 54 nm 43° / 43° -
PENCE FIX UZ10 (AWY-HI) 35,000 ft / 10,668 m -20.02550˚ -41.55583˚ 139 nm 193 nm 24° / 24° -
NACAR FIX UZ10 (AWY-HI) 27,900 ft / 8,504 m -18.11050˚ -40.65883˚ 125 nm 319 nm 24° / 24° -
CRUSH FIX UZ15 (AWY-HI) 23,500 ft / 7,163 m -17.79067˚ -40.35367˚ 25 nm 345 nm 42° / 42° -
ACRID FIX UZ15 (AWY-HI) 23,500 ft / 7,163 m -16.93858˚ -39.54758˚ 68 nm 414 nm 42° / 42° -
O SBPS APT - 0 ft / 0 m -16.43863˚ -39.08092˚ 40 nm 454 nm 42° / 42° Porto Seguro

Altitude Profile

Advertisement - Login to hide

Weather


0- 5 10 15 20 25 30 35+ Temperature / ° C

Clouds and Precipitation
Forecast for 2017-12-16 12:00 UTC. Updated 2 hours ago

Ground ~20,000 ft ~40,000 ft Winds

SBGL

Details ICAO SBGL (GIG)
Name Galeao Antonio Carlos Jombim
Region Brazil
Timezone America/Sao_Paulo (UTC-2.0)
Stats Elevation 28 ft / 9 m (AMSL)
Location -22.808938° -43.243681°
Runways 2
Magnetic Variation 22.768° W

METAR

SBGL 160900Z 01003KT 7000 NSC 24/19 Q1013

Decode

TAF

Not found

Departure Runways

ID Width Length Bearing (true) Bearing (mag) Surface Threshold Offset Overrun Length
10 148 ft / 45 m 13,128 ft / 4,001 m 74.39° 97.16° Concrete 0 ft / 0 m 175 ft / 53 m
15 154 ft / 47 m 10,418 ft / 3,175 m 125.78° 148.55° Asphalt 0 ft / 0 m 185 ft / 56 m
28 148 ft / 45 m 13,128 ft / 4,001 m 254.38° 277.15° Concrete 0 ft / 0 m 175 ft / 53 m
33 154 ft / 47 m 10,418 ft / 3,175 m 305.78° 328.55° Asphalt 0 ft / 0 m 185 ft / 56 m

SBPS

Details ICAO SBPS (BPS)
Name Porto Seguro
Region Brazil
Timezone America/Bahia (UTC-3.0)
Stats Elevation 168 ft / 51 m (AMSL)
Location -16.438625° -39.080917°
Runways 1
Magnetic Variation 23.868° W

METAR

SBPS 160900Z 33002KT 9999 FEW017 23/23 Q1015

Decode

TAF

Not found

Destination Runways

ID Width Length Bearing (true) Bearing (mag) Surface Threshold Offset Overrun Length
10 148 ft / 45 m 6,532 ft / 1,991 m 74.06° 97.93° Asphalt 0 ft / 0 m 195 ft / 59 m
28 148 ft / 45 m 6,532 ft / 1,991 m 254.06° 277.93° Asphalt 0 ft / 0 m 0 ft / 0 m

Popular Alternatives